sensor_id;sensor_type;location;lat;lon;timestamp;pressure;altitude;pressure_sealevel;temperature;humidity
76794;BME280;65745;50.278;18.192;2023-09-19T00:01:54;98984.79;;;18.11;76.24
76794;BME280;65745;50.278;18.192;2023-09-19T00:04:27;98983.48;;;18.14;76.27
76794;BME280;65745;50.278;18.192;2023-09-19T00:07:03;98983.11;;;18.14;76.28
76794;BME280;65745;50.278;18.192;2023-09-19T00:09:35;98977.13;;;18.17;76.11
76794;BME280;65745;50.278;18.192;2023-09-19T00:12:08;98973.46;;;18.17;77.15
76794;BME280;65745;50.278;18.192;2023-09-19T00:14:41;98966.66;;;18.18;76.90
76794;BME280;65745;50.278;18.192;2023-09-19T00:17:13;98963.89;;;18.17;77.88
76794;BME280;65745;50.278;18.192;2023-09-19T00:19:47;98963.02;;;18.17;77.21
76794;BME280;65745;50.278;18.192;2023-09-19T00:22:22;98965.11;;;18.17;77.20
76794;BME280;65745;50.278;18.192;2023-09-19T00:24:56;98960.81;;;18.14;78.09
76794;BME280;65745;50.278;18.192;2023-09-19T00:27:29;98962.62;;;18.13;77.26
76794;BME280;65745;50.278;18.192;2023-09-19T00:30:01;98962.94;;;18.13;77.49
76794;BME280;65745;50.278;18.192;2023-09-19T00:32:34;98965.27;;;18.10;77.67
76794;BME280;65745;50.278;18.192;2023-09-19T00:35:09;98957.64;;;18.09;77.38
76794;BME280;65745;50.278;18.192;2023-09-19T00:37:42;98956.39;;;18.10;77.31
76794;BME280;65745;50.278;18.192;2023-09-19T00:40:14;98950.61;;;18.11;77.27
76794;BME280;65745;50.278;18.192;2023-09-19T00:42:48;98953.49;;;18.08;78.02
76794;BME280;65745;50.278;18.192;2023-09-19T00:45:21;98952.48;;;18.06;76.99
76794;BME280;65745;50.278;18.192;2023-09-19T00:47:53;98955.29;;;18.06;77.29
76794;BME280;65745;50.278;18.192;2023-09-19T00:50:26;98952.30;;;18.07;77.13
76794;BME280;65745;50.278;18.192;2023-09-19T00:52:59;98954.84;;;18.09;77.00
76794;BME280;65745;50.278;18.192;2023-09-19T00:55:32;98953.40;;;18.12;77.08
76794;BME280;65745;50.278;18.192;2023-09-19T00:58:05;98953.37;;;18.13;76.80
76794;BME280;65745;50.278;18.192;2023-09-19T01:00:38;98952.13;;;18.13;77.38
76794;BME280;65745;50.278;18.192;2023-09-19T01:03:10;98950.10;;;18.11;77.11
76794;BME280;65745;50.278;18.192;2023-09-19T01:05:44;98948.20;;;18.10;77.27
76794;BME280;65745;50.278;18.192;2023-09-19T01:08:16;98944.70;;;18.11;77.29
76794;BME280;65745;50.278;18.192;2023-09-19T01:10:55;98949.20;;;18.12;77.16
76794;BME280;65745;50.278;18.192;2023-09-19T01:13:34;98943.54;;;18.15;77.07
76794;BME280;65745;50.278;18.192;2023-09-19T01:16:19;98943.84;;;18.18;76.98
76794;BME280;65745;50.278;18.192;2023-09-19T01:18:59;98940.63;;;18.20;77.04
76794;BME280;65745;50.278;18.192;2023-09-19T01:21:41;98937.52;;;18.19;78.06
76794;BME280;65745;50.278;18.192;2023-09-19T01:24:50;98930.27;;;18.16;77.78
76794;BME280;65745;50.278;18.192;2023-09-19T01:27:52;98925.98;;;18.19;77.25
76794;BME280;65745;50.278;18.192;2023-09-19T01:30:30;98930.98;;;18.22;76.97
76794;BME280;65745;50.278;18.192;2023-09-19T01:33:06;98935.20;;;18.20;78.85
76794;BME280;65745;50.278;18.192;2023-09-19T01:35:40;98938.20;;;18.19;78.65
76794;BME280;65745;50.278;18.192;2023-09-19T01:38:13;98936.30;;;18.19;77.77
76794;BME280;65745;50.278;18.192;2023-09-19T01:40:52;98936.30;;;18.18;77.98
76794;BME280;65745;50.278;18.192;2023-09-19T01:43:32;98935.34;;;18.15;77.82
76794;BME280;65745;50.278;18.192;2023-09-19T01:46:12;98932.76;;;18.14;78.13
76794;BME280;65745;50.278;18.192;2023-09-19T01:49:04;98931.48;;;18.16;77.97
76794;BME280;65745;50.278;18.192;2023-09-19T01:51:45;98933.33;;;18.19;77.76
76794;BME280;65745;50.278;18.192;2023-09-19T01:54:26;98930.86;;;18.19;78.96
76794;BME280;65745;50.278;18.192;2023-09-19T01:57:04;98926.56;;;18.18;79.28
76794;BME280;65745;50.278;18.192;2023-09-19T01:59:45;98924.83;;;18.18;78.64
76794;BME280;65745;50.278;18.192;2023-09-19T02:02:22;98926.30;;;18.21;78.98
76794;BME280;65745;50.278;18.192;2023-09-19T02:04:56;98922.34;;;18.19;79.41
76794;BME280;65745;50.278;18.192;2023-09-19T02:07:28;98922.00;;;18.19;78.69
76794;BME280;65745;50.278;18.192;2023-09-19T02:10:02;98926.98;;;18.22;78.70
76794;BME280;65745;50.278;18.192;2023-09-19T02:12:36;98928.64;;;18.24;78.71
76794;BME280;65745;50.278;18.192;2023-09-19T02:15:10;98926.49;;;18.27;78.39
76794;BME280;65745;50.278;18.192;2023-09-19T02:17:42;98923.70;;;18.27;78.56
76794;BME280;65745;50.278;18.192;2023-09-19T02:20:15;98921.30;;;18.25;78.93
76794;BME280;65745;50.278;18.192;2023-09-19T02:22:47;98920.59;;;18.20;79.93
76794;BME280;65745;50.278;18.192;2023-09-19T02:25:21;98923.72;;;18.14;81.81
76794;BME280;65745;50.278;18.192;2023-09-19T02:27:53;98923.52;;;18.07;81.59
76794;BME280;65745;50.278;18.192;2023-09-19T02:30:27;98922.04;;;18.04;81.86
76794;BME280;65745;50.278;18.192;2023-09-19T02:32:59;98926.20;;;18.05;81.21
76794;BME280;65745;50.278;18.192;2023-09-19T02:35:34;98930.01;;;18.06;80.70
76794;BME280;65745;50.278;18.192;2023-09-19T02:38:07;98931.23;;;18.06;80.58
76794;BME280;65745;50.278;18.192;2023-09-19T02:40:42;98933.41;;;18.09;80.56
76794;BME280;65745;50.278;18.192;2023-09-19T02:43:14;98932.34;;;18.10;79.86
76794;BME280;65745;50.278;18.192;2023-09-19T02:45:48;98939.94;;;18.13;80.09
76794;BME280;65745;50.278;18.192;2023-09-19T02:48:21;98937.62;;;18.15;79.70
76794;BME280;65745;50.278;18.192;2023-09-19T02:50:53;98938.47;;;18.16;79.53
76794;BME280;65745;50.278;18.192;2023-09-19T02:53:26;98939.35;;;18.15;79.70
76794;BME280;65745;50.278;18.192;2023-09-19T02:55:59;98944.89;;;18.10;81.47
76794;BME280;65745;50.278;18.192;2023-09-19T02:58:31;98940.63;;;18.07;80.89
76794;BME280;65745;50.278;18.192;2023-09-19T03:01:12;98941.98;;;18.08;80.79
76794;BME280;65745;50.278;18.192;2023-09-19T03:03:45;98942.55;;;18.07;80.48
76794;BME280;65745;50.278;18.192;2023-09-19T03:06:18;98944.61;;;18.07;80.83
76794;BME280;65745;50.278;18.192;2023-09-19T03:08:50;98946.73;;;18.07;80.77
76794;BME280;65745;50.278;18.192;2023-09-19T03:11:24;98941.98;;;18.08;80.19
76794;BME280;65745;50.278;18.192;2023-09-19T03:13:59;98940.58;;;18.08;80.18
76794;BME280;65745;50.278;18.192;2023-09-19T03:16:32;98941.32;;;18.07;80.71
76794;BME280;65745;50.278;18.192;2023-09-19T03:19:05;98941.52;;;18.06;80.33
76794;BME280;65745;50.278;18.192;2023-09-19T03:21:38;98940.83;;;18.06;81.48
76794;BME280;65745;50.278;18.192;2023-09-19T03:24:10;98936.48;;;18.05;81.26
76794;BME280;65745;50.278;18.192;2023-09-19T03:26:43;98929.14;;;18.06;81.57
76794;BME280;65745;50.278;18.192;2023-09-19T03:29:16;98929.98;;;18.08;81.37
76794;BME280;65745;50.278;18.192;2023-09-19T03:31:49;98927.11;;;18.10;81.05
76794;BME280;65745;50.278;18.192;2023-09-19T03:34:22;98930.23;;;18.12;81.67
76794;BME280;65745;50.278;18.192;2023-09-19T03:36:55;98934.03;;;18.12;81.33
76794;BME280;65745;50.278;18.192;2023-09-19T03:39:27;98935.75;;;18.13;81.63
76794;BME280;65745;50.278;18.192;2023-09-19T03:42:00;98931.70;;;18.14;81.59
76794;BME280;65745;50.278;18.192;2023-09-19T03:44:33;98929.75;;;18.16;81.54
76794;BME280;65745;50.278;18.192;2023-09-19T03:47:06;98929.52;;;18.18;81.16
76794;BME280;65745;50.278;18.192;2023-09-19T03:49:38;98931.40;;;18.19;81.36
76794;BME280;65745;50.278;18.192;2023-09-19T03:52:10;98937.16;;;18.19;81.64
76794;BME280;65745;50.278;18.192;2023-09-19T03:54:43;98936.83;;;18.19;81.55
76794;BME280;65745;50.278;18.192;2023-09-19T03:57:17;98937.39;;;18.17;81.54
76794;BME280;65745;50.278;18.192;2023-09-19T03:59:51;98933.74;;;18.16;81.91
76794;BME280;65745;50.278;18.192;2023-09-19T04:02:25;98931.86;;;18.15;81.98
76794;BME280;65745;50.278;18.192;2023-09-19T04:04:57;98933.34;;;18.12;82.68
76794;BME280;65745;50.278;18.192;2023-09-19T04:07:29;98936.50;;;18.11;82.31
76794;BME280;65745;50.278;18.192;2023-09-19T04:10:01;98934.79;;;18.10;81.88
76794;BME280;65745;50.278;18.192;2023-09-19T04:12:34;98938.81;;;18.09;82.34
76794;BME280;65745;50.278;18.192;2023-09-19T04:15:08;98947.58;;;18.07;82.13
76794;BME280;65745;50.278;18.192;2023-09-19T04:17:44;98947.98;;;18.05;82.17
76794;BME280;65745;50.278;18.192;2023-09-19T04:20:17;98951.52;;;18.04;82.29
76794;BME280;65745;50.278;18.192;2023-09-19T04:22:50;98955.39;;;18.02;82.18
76794;BME280;65745;50.278;18.192;2023-09-19T04:25:22;98956.11;;;18.01;82.41
76794;BME280;65745;50.278;18.192;2023-09-19T04:27:54;98959.11;;;17.99;82.51
76794;BME280;65745;50.278;18.192;2023-09-19T04:30:26;98960.35;;;17.99;82.52
76794;BME280;65745;50.278;18.192;2023-09-19T04:32:59;98958.75;;;18.00;82.68
76794;BME280;65745;50.278;18.192;2023-09-19T04:35:35;98959.77;;;18.01;82.89
76794;BME280;65745;50.278;18.192;2023-09-19T04:38:09;98956.23;;;18.03;82.74
76794;BME280;65745;50.278;18.192;2023-09-19T04:40:42;98961.08;;;18.04;83.08
76794;BME280;65745;50.278;18.192;2023-09-19T04:43:14;98963.14;;;18.06;82.78
76794;BME280;65745;50.278;18.192;2023-09-19T04:45:47;98960.09;;;18.08;82.76
76794;BME280;65745;50.278;18.192;2023-09-19T04:48:20;98960.73;;;18.12;82.70
76794;BME280;65745;50.278;18.192;2023-09-19T04:50:53;98962.05;;;18.14;82.75
76794;BME280;65745;50.278;18.192;2023-09-19T04:53:25;98962.67;;;18.17;82.68
76794;BME280;65745;50.278;18.192;2023-09-19T04:55:58;98969.74;;;18.19;82.43
76794;BME280;65745;50.278;18.192;2023-09-19T04:58:31;98970.41;;;18.21;82.56
76794;BME280;65745;50.278;18.192;2023-09-19T05:01:03;98966.52;;;18.23;82.54
76794;BME280;65745;50.278;18.192;2023-09-19T05:03:35;98970.89;;;18.23;82.68
76794;BME280;65745;50.278;18.192;2023-09-19T05:06:08;98971.78;;;18.22;82.53
76794;BME280;65745;50.278;18.192;2023-09-19T05:08:40;98977.75;;;18.20;82.91
76794;BME280;65745;50.278;18.192;2023-09-19T05:11:12;98985.70;;;18.16;82.93
76794;BME280;65745;50.278;18.192;2023-09-19T05:13:44;98991.89;;;18.13;82.97
76794;BME280;65745;50.278;18.192;2023-09-19T05:16:17;98995.11;;;18.09;83.62
76794;BME280;65745;50.278;18.192;2023-09-19T05:18:49;99001.65;;;18.06;83.75
76794;BME280;65745;50.278;18.192;2023-09-19T05:21:21;99007.25;;;18.04;83.98
76794;BME280;65745;50.278;18.192;2023-09-19T05:23:54;99011.81;;;18.03;84.03
76794;BME280;65745;50.278;18.192;2023-09-19T05:26:26;99011.31;;;18.02;83.78
76794;BME280;65745;50.278;18.192;2023-09-19T05:28:58;99013.64;;;18.00;83.78
76794;BME280;65745;50.278;18.192;2023-09-19T05:31:31;99015.24;;;17.99;83.96
76794;BME280;65745;50.278;18.192;2023-09-19T05:34:04;99014.80;;;17.95;84.45
76794;BME280;65745;50.278;18.192;2023-09-19T05:36:37;99018.14;;;17.94;85.45
76794;BME280;65745;50.278;18.192;2023-09-19T05:39:10;99019.61;;;17.92;85.38
76794;BME280;65745;50.278;18.192;2023-09-19T05:41:43;99023.63;;;17.91;85.46
76794;BME280;65745;50.278;18.192;2023-09-19T05:44:15;99025.55;;;17.91;85.77
76794;BME280;65745;50.278;18.192;2023-09-19T05:46:48;99022.61;;;17.89;86.76
76794;BME280;65745;50.278;18.192;2023-09-19T05:49:20;99025.83;;;17.86;87.69
76794;BME280;65745;50.278;18.192;2023-09-19T05:51:53;99027.25;;;17.85;87.71
76794;BME280;65745;50.278;18.192;2023-09-19T05:54:29;99032.00;;;17.82;88.15
76794;BME280;65745;50.278;18.192;2023-09-19T05:57:02;99031.09;;;17.84;86.96
76794;BME280;65745;50.278;18.192;2023-09-19T05:59:34;99034.21;;;17.85;87.05
76794;BME280;65745;50.278;18.192;2023-09-19T06:02:06;99036.65;;;17.85;88.86
76794;BME280;65745;50.278;18.192;2023-09-19T06:04:40;99036.80;;;17.86;88.03
76794;BME280;65745;50.278;18.192;2023-09-19T06:07:13;99040.14;;;17.85;88.11
76794;BME280;65745;50.278;18.192;2023-09-19T06:09:47;99043.59;;;17.87;88.13
76794;BME280;65745;50.278;18.192;2023-09-19T06:12:19;99046.55;;;17.87;87.80
76794;BME280;65745;50.278;18.192;2023-09-19T06:14:51;99050.16;;;17.88;87.53
76794;BME280;65745;50.278;18.192;2023-09-19T06:17:24;99059.04;;;17.89;88.68
76794;BME280;65745;50.278;18.192;2023-09-19T06:19:58;99062.68;;;17.90;88.00
76794;BME280;65745;50.278;18.192;2023-09-19T06:22:30;99066.67;;;17.91;88.14
76794;BME280;65745;50.278;18.192;2023-09-19T06:25:03;99072.80;;;17.89;89.48
76794;BME280;65745;50.278;18.192;2023-09-19T06:27:38;99074.38;;;17.88;88.50
76794;BME280;65745;50.278;18.192;2023-09-19T06:30:14;99076.78;;;17.91;88.17
76794;BME280;65745;50.278;18.192;2023-09-19T06:32:48;99084.27;;;17.90;89.06
76794;BME280;65745;50.278;18.192;2023-09-19T06:35:21;99088.98;;;17.90;89.87
76794;BME280;65745;50.278;18.192;2023-09-19T06:37:53;99091.39;;;17.92;88.90
76794;BME280;65745;50.278;18.192;2023-09-19T06:40:25;99096.39;;;17.94;88.96
76794;BME280;65745;50.278;18.192;2023-09-19T06:42:59;99096.02;;;17.94;89.33
76794;BME280;65745;50.278;18.192;2023-09-19T06:45:33;99099.11;;;17.97;88.39
76794;BME280;65745;50.278;18.192;2023-09-19T06:48:06;99101.48;;;18.00;88.15
76794;BME280;65745;50.278;18.192;2023-09-19T06:50:39;99109.25;;;18.03;88.47
76794;BME280;65745;50.278;18.192;2023-09-19T06:53:12;99111.02;;;18.02;87.73
76794;BME280;65745;50.278;18.192;2023-09-19T06:55:44;99117.39;;;18.05;87.46
76794;BME280;65745;50.278;18.192;2023-09-19T06:58:18;99119.80;;;18.07;88.17
76794;BME280;65745;50.278;18.192;2023-09-19T07:00:51;99118.89;;;18.08;87.99
76794;BME280;65745;50.278;18.192;2023-09-19T07:03:24;99124.44;;;18.09;87.89
76794;BME280;65745;50.278;18.192;2023-09-19T07:05:57;99123.73;;;18.09;87.93
76794;BME280;65745;50.278;18.192;2023-09-19T07:08:29;99124.23;;;18.11;89.58
76794;BME280;65745;50.278;18.192;2023-09-19T07:11:02;99128.85;;;18.14;87.96
76794;BME280;65745;50.278;18.192;2023-09-19T07:13:37;99129.47;;;18.18;87.62
76794;BME280;65745;50.278;18.192;2023-09-19T07:16:10;99133.95;;;18.19;87.95
76794;BME280;65745;50.278;18.192;2023-09-19T07:18:58;99141.42;;;18.21;88.19
76794;BME280;65745;50.278;18.192;2023-09-19T07:21:30;99146.55;;;18.24;88.44
76794;BME280;65745;50.278;18.192;2023-09-19T07:24:04;99148.61;;;18.27;88.56
76794;BME280;65745;50.278;18.192;2023-09-19T07:26:37;99151.63;;;18.33;88.26
76794;BME280;65745;50.278;18.192;2023-09-19T07:29:10;99155.52;;;18.37;88.30
76794;BME280;65745;50.278;18.192;2023-09-19T07:31:42;99160.43;;;18.43;88.18
76794;BME280;65745;50.278;18.192;2023-09-19T07:34:15;99165.73;;;18.47;88.95
76794;BME280;65745;50.278;18.192;2023-09-19T07:36:47;99164.05;;;18.53;87.82
76794;BME280;65745;50.278;18.192;2023-09-19T07:39:19;99168.36;;;18.62;88.05
76794;BME280;65745;50.278;18.192;2023-09-19T07:41:53;99170.70;;;18.74;87.72
76794;BME280;65745;50.278;18.192;2023-09-19T07:44:26;99173.43;;;18.83;87.51
76794;BME280;65745;50.278;18.192;2023-09-19T07:46:58;99181.25;;;18.91;87.49
76794;BME280;65745;50.278;18.192;2023-09-19T07:49:32;99184.25;;;18.97;87.07
76794;BME280;65745;50.278;18.192;2023-09-19T07:52:05;99186.61;;;19.07;86.20
76794;BME280;65745;50.278;18.192;2023-09-19T07:54:38;99185.00;;;19.15;86.03
76794;BME280;65745;50.278;18.192;2023-09-19T07:57:12;99193.34;;;19.24;85.90
76794;BME280;65745;50.278;18.192;2023-09-19T07:59:45;99193.05;;;19.34;85.61
76794;BME280;65745;50.278;18.192;2023-09-19T08:02:18;99200.73;;;19.40;85.42
76794;BME280;65745;50.278;18.192;2023-09-19T08:04:50;99202.85;;;19.47;85.10
76794;BME280;65745;50.278;18.192;2023-09-19T08:07:23;99205.35;;;19.51;84.24
76794;BME280;65745;50.278;18.192;2023-09-19T08:09:55;99208.55;;;19.56;83.86
76794;BME280;65745;50.278;18.192;2023-09-19T08:12:29;99208.16;;;19.58;83.67
76794;BME280;65745;50.278;18.192;2023-09-19T08:15:04;99205.01;;;19.64;83.66
76794;BME280;65745;50.278;18.192;2023-09-19T08:17:37;99202.89;;;19.71;83.57
76794;BME280;65745;50.278;18.192;2023-09-19T08:20:12;99207.80;;;19.77;83.06
76794;BME280;65745;50.278;18.192;2023-09-19T08:22:48;99209.02;;;19.82;82.36
76794;BME280;65745;50.278;18.192;2023-09-19T08:25:23;99210.40;;;19.89;82.22
76794;BME280;65745;50.278;18.192;2023-09-19T08:27:57;99212.10;;;19.97;81.96
76794;BME280;65745;50.278;18.192;2023-09-19T08:30:30;99210.71;;;20.02;81.96
76794;BME280;65745;50.278;18.192;2023-09-19T08:33:06;99216.91;;;20.06;81.39
76794;BME280;65745;50.278;18.192;2023-09-19T08:35:38;99222.52;;;20.05;80.60
76794;BME280;65745;50.278;18.192;2023-09-19T08:38:12;99223.24;;;20.05;80.77
76794;BME280;65745;50.278;18.192;2023-09-19T08:40:45;99221.34;;;20.04;81.24
76794;BME280;65745;50.278;18.192;2023-09-19T08:43:17;99223.64;;;20.03;81.25
76794;BME280;65745;50.278;18.192;2023-09-19T08:45:49;99232.73;;;20.03;81.22
76794;BME280;65745;50.278;18.192;2023-09-19T08:48:25;99234.03;;;20.01;81.10
76794;BME280;65745;50.278;18.192;2023-09-19T08:51:02;99235.97;;;20.00;80.99
76794;BME280;65745;50.278;18.192;2023-09-19T08:53:42;99241.48;;;19.96;80.10
76794;BME280;65745;50.278;18.192;2023-09-19T08:56:18;99243.36;;;19.92;79.91
76794;BME280;65745;50.278;18.192;2023-09-19T08:58:57;99246.82;;;19.87;79.28
76794;BME280;65745;50.278;18.192;2023-09-19T09:01:30;99246.55;;;19.84;79.17
76794;BME280;65745;50.278;18.192;2023-09-19T09:04:04;99248.54;;;19.82;79.00
76794;BME280;65745;50.278;18.192;2023-09-19T09:06:40;99250.83;;;19.81;78.91
76794;BME280;65745;50.278;18.192;2023-09-19T09:09:14;99252.30;;;19.78;79.27
76794;BME280;65745;50.278;18.192;2023-09-19T09:11:46;99258.15;;;19.76;79.36
76794;BME280;65745;50.278;18.192;2023-09-19T09:14:22;99257.56;;;19.71;79.39
76794;BME280;65745;50.278;18.192;2023-09-19T09:16:56;99261.63;;;19.71;79.59
76794;BME280;65745;50.278;18.192;2023-09-19T09:19:31;99265.45;;;19.71;79.72
76794;BME280;65745;50.278;18.192;2023-09-19T09:22:10;99265.09;;;19.71;79.84
76794;BME280;65745;50.278;18.192;2023-09-19T09:24:54;99268.00;;;19.73;79.40
76794;BME280;65745;50.278;18.192;2023-09-19T09:27:29;99272.52;;;19.67;78.80
76794;BME280;65745;50.278;18.192;2023-09-19T09:30:02;99275.17;;;19.61;79.61
76794;BME280;65745;50.278;18.192;2023-09-19T09:32:35;99280.58;;;19.54;79.58
76794;BME280;65745;50.278;18.192;2023-09-19T09:35:15;99278.25;;;19.50;79.39
76794;BME280;65745;50.278;18.192;2023-09-19T09:38:00;99281.14;;;19.45;79.79
76794;BME280;65745;50.278;18.192;2023-09-19T09:40:49;99283.14;;;19.42;80.38
76794;BME280;65745;50.278;18.192;2023-09-19T09:43:33;99282.39;;;19.44;80.44
76794;BME280;65745;50.278;18.192;2023-09-19T09:46:15;99284.54;;;19.42;80.82
76794;BME280;65745;50.278;18.192;2023-09-19T09:49:05;99289.02;;;19.44;80.80
76794;BME280;65745;50.278;18.192;2023-09-19T09:51:49;99293.61;;;19.49;80.59
76794;BME280;65745;50.278;18.192;2023-09-19T09:54:31;99294.27;;;19.52;80.78
76794;BME280;65745;50.278;18.192;2023-09-19T09:57:08;99300.42;;;19.50;81.20
76794;BME280;65745;50.278;18.192;2023-09-19T10:03:23;99300.11;;;19.56;80.69
76794;BME280;65745;50.278;18.192;2023-09-19T10:06:03;99305.02;;;19.62;80.80
76794;BME280;65745;50.278;18.192;2023-09-19T10:09:01;99313.46;;;19.65;81.16
76794;BME280;65745;50.278;18.192;2023-09-19T10:11:43;99312.42;;;19.72;80.50
76794;BME280;65745;50.278;18.192;2023-09-19T10:14:16;99319.50;;;19.82;80.56
76794;BME280;65745;50.278;18.192;2023-09-19T10:16:55;99318.65;;;19.94;80.35
76794;BME280;65745;50.278;18.192;2023-09-19T10:19:36;99318.92;;;20.03;80.17
76794;BME280;65745;50.278;18.192;2023-09-19T10:22:09;99323.49;;;20.09;79.94
76794;BME280;65745;50.278;18.192;2023-09-19T10:24:42;99320.52;;;20.15;79.81
76794;BME280;65745;50.278;18.192;2023-09-19T10:27:32;99319.19;;;20.19;79.73
76794;BME280;65745;50.278;18.192;2023-09-19T10:30:09;99318.85;;;20.18;79.66
76794;BME280;65745;50.278;18.192;2023-09-19T10:32:43;99320.20;;;20.20;79.32
76794;BME280;65745;50.278;18.192;2023-09-19T10:35:18;99322.02;;;20.23;79.38
76794;BME280;65745;50.278;18.192;2023-09-19T10:37:53;99324.73;;;20.26;79.19
76794;BME280;65745;50.278;18.192;2023-09-19T10:40:28;99330.60;;;20.29;79.03
76794;BME280;65745;50.278;18.192;2023-09-19T10:43:05;99329.45;;;20.33;79.11
76794;BME280;65745;50.278;18.192;2023-09-19T10:45:37;99331.22;;;20.39;78.56
76794;BME280;65745;50.278;18.192;2023-09-19T10:48:10;99334.48;;;20.35;78.10
76794;BME280;65745;50.278;18.192;2023-09-19T10:50:48;99343.14;;;20.31;77.98
76794;BME280;65745;50.278;18.192;2023-09-19T10:53:21;99340.75;;;20.29;78.25
76794;BME280;65745;50.278;18.192;2023-09-19T10:55:57;99343.04;;;20.28;78.00
76794;BME280;65745;50.278;18.192;2023-09-19T10:58:33;99343.52;;;20.23;77.49
76794;BME280;65745;50.278;18.192;2023-09-19T11:01:11;99345.77;;;20.19;77.56
76794;BME280;65745;50.278;18.192;2023-09-19T11:03:45;99346.83;;;20.24;77.90
76794;BME280;65745;50.278;18.192;2023-09-19T11:06:20;99345.50;;;20.35;77.63
76794;BME280;65745;50.278;18.192;2023-09-19T11:09:01;99342.55;;;20.47;77.65
76794;BME280;65745;50.278;18.192;2023-09-19T11:11:53;99342.87;;;20.60;77.39
76794;BME280;65745;50.278;18.192;2023-09-19T11:14:42;99342.39;;;20.69;76.87
76794;BME280;65745;50.278;18.192;2023-09-19T11:17:38;99341.41;;;20.78;76.60
76794;BME280;65745;50.278;18.192;2023-09-19T11:20:27;99335.80;;;20.84;75.71
76794;BME280;65745;50.278;18.192;2023-09-19T11:23:21;99331.46;;;20.94;75.06
76794;BME280;65745;50.278;18.192;2023-09-19T11:25:57;99334.58;;;21.18;74.79
76794;BME280;65745;50.278;18.192;2023-09-19T11:28:31;99332.30;;;21.75;73.02
76794;BME280;65745;50.278;18.192;2023-09-19T11:46:54;99329.01;;;23.15;69.22
76794;BME280;65745;50.278;18.192;2023-09-19T11:49:30;99328.52;;;23.02;69.24
76794;BME280;65745;50.278;18.192;2023-09-19T11:52:05;99332.08;;;22.73;67.48
76794;BME280;65745;50.278;18.192;2023-09-19T11:54:39;99336.55;;;22.53;66.96
76794;BME280;65745;50.278;18.192;2023-09-19T11:57:12;99336.11;;;22.40;68.31
76794;BME280;65745;50.278;18.192;2023-09-19T11:59:52;99335.98;;;22.35;68.67
76794;BME280;65745;50.278;18.192;2023-09-19T12:02:37;99334.77;;;22.39;68.95
76794;BME280;65745;50.278;18.192;2023-09-19T12:05:11;99332.48;;;22.59;68.57
76794;BME280;65745;50.278;18.192;2023-09-19T12:07:47;99332.04;;;22.70;69.11
76794;BME280;65745;50.278;18.192;2023-09-19T12:10:20;99326.60;;;22.88;68.13
76794;BME280;65745;50.278;18.192;2023-09-19T12:12:54;99325.21;;;22.87;68.91
76794;BME280;65745;50.278;18.192;2023-09-19T12:15:27;99327.31;;;22.65;68.22
76794;BME280;65745;50.278;18.192;2023-09-19T12:18:05;99330.89;;;22.44;69.10
76794;BME280;65745;50.278;18.192;2023-09-19T12:20:45;99332.48;;;22.30;69.62
76794;BME280;65745;50.278;18.192;2023-09-19T12:23:20;99333.42;;;22.14;69.64
76794;BME280;65745;50.278;18.192;2023-09-19T12:25:53;99339.52;;;22.06;69.74
76794;BME280;65745;50.278;18.192;2023-09-19T12:28:29;99340.38;;;21.96;70.04
76794;BME280;65745;50.278;18.192;2023-09-19T12:31:09;99337.97;;;21.84;69.30
76794;BME280;65745;50.278;18.192;2023-09-19T12:33:42;99338.13;;;21.74;68.90
76794;BME280;65745;50.278;18.192;2023-09-19T12:36:25;99336.86;;;21.76;68.93
76794;BME280;65745;50.278;18.192;2023-09-19T12:39:01;99335.61;;;21.97;69.23
76794;BME280;65745;50.278;18.192;2023-09-19T12:41:40;99339.34;;;22.20;68.52
76794;BME280;65745;50.278;18.192;2023-09-19T12:44:13;99345.58;;;22.70;67.91
76794;BME280;65745;50.278;18.192;2023-09-19T12:46:46;99340.77;;;23.37;66.58
76794;BME280;65745;50.278;18.192;2023-09-19T12:49:19;99340.91;;;24.28;63.53
76794;BME280;65745;50.278;18.192;2023-09-19T12:51:56;99336.67;;;25.04;62.70
76794;BME280;65745;50.278;18.192;2023-09-19T12:54:40;99332.28;;;25.29;61.26
76794;BME280;65745;50.278;18.192;2023-09-19T12:57:25;99330.77;;;25.21;58.61
76794;BME280;65745;50.278;18.192;2023-09-19T12:59:58;99335.63;;;25.33;59.22
76794;BME280;65745;50.278;18.192;2023-09-19T13:02:30;99339.64;;;25.66;58.61
76794;BME280;65745;50.278;18.192;2023-09-19T13:05:04;99338.69;;;25.47;58.17
76794;BME280;65745;50.278;18.192;2023-09-19T13:07:44;99338.80;;;25.19;58.24
76794;BME280;65745;50.278;18.192;2023-09-19T13:10:17;99341.09;;;24.82;58.40
76794;BME280;65745;50.278;18.192;2023-09-19T13:12:55;99345.34;;;24.40;58.34
76794;BME280;65745;50.278;18.192;2023-09-19T13:15:27;99345.59;;;23.98;58.60
76794;BME280;65745;50.278;18.192;2023-09-19T13:18:00;99345.42;;;23.65;59.40
76794;BME280;65745;50.278;18.192;2023-09-19T13:20:43;99344.09;;;23.38;59.89
76794;BME280;65745;50.278;18.192;2023-09-19T13:23:28;99350.90;;;23.08;60.68
76794;BME280;65745;50.278;18.192;2023-09-19T13:26:01;99356.65;;;22.83;60.99
76794;BME280;65745;50.278;18.192;2023-09-19T13:28:37;99370.98;;;22.47;61.38
76794;BME280;65745;50.278;18.192;2023-09-19T13:31:10;99377.61;;;22.15;62.01
76794;BME280;65745;50.278;18.192;2023-09-19T13:33:45;99388.91;;;21.82;63.20
76794;BME280;65745;50.278;18.192;2023-09-19T13:36:18;99394.92;;;21.32;65.27
76794;BME280;65745;50.278;18.192;2023-09-19T13:38:50;99404.10;;;20.89;66.90
76794;BME280;65745;50.278;18.192;2023-09-19T13:41:26;99405.42;;;20.44;68.73
76794;BME280;65745;50.278;18.192;2023-09-19T13:43:59;99408.48;;;20.08;70.62
76794;BME280;65745;50.278;18.192;2023-09-19T13:46:31;99405.02;;;19.73;73.56
76794;BME280;65745;50.278;18.192;2023-09-19T13:49:05;99407.66;;;19.51;75.07
76794;BME280;65745;50.278;18.192;2023-09-19T13:51:37;99402.86;;;19.32;75.61